Time;durP1;ratioP1;P1;durP2;ratioP2;P2;SDS_P1;SDS_P2;PMS_P1;PMS_P2;Temp;Humidity;BMP_temperature;BMP_pressure;BME280_temperature;BME280_humidity;BME280_pressure;Samples;Min_cycle;Max_cycle;Signal;HPM_P1;HPM_P2
2023/07/20 00:00:18;;;;;;;6.13;4.13;;;16.50;99.90;;;;;;4993697;28;20670;-66
2023/07/20 00:02:45;;;;;;;14.25;5.30;;;16.40;99.90;;;;;;5003730;28;20196;-66
2023/07/20 00:05:12;;;;;;;10.70;5.83;;;16.40;99.90;;;;;;4988684;28;20213;-67
2023/07/20 00:07:39;;;;;;;10.30;5.45;;;16.50;99.90;;;;;;4998283;28;20205;-66
2023/07/20 00:10:07;;;;;;;14.43;6.25;;;16.40;92.20;;;;;;4988285;28;20209;-67
2023/07/20 00:12:35;;;;;;;17.38;7.05;;;16.40;71.30;;;;;;4986578;28;20205;-68
2023/07/20 00:15:02;;;;;;;16.65;7.35;;;16.40;72.10;;;;;;4988434;28;20201;-67
2023/07/20 00:17:29;;;;;;;10.68;6.32;;;16.30;97.90;;;;;;4986019;28;20665;-67
2023/07/20 00:19:57;;;;;;;14.95;6.13;;;16.30;1.00;;;;;;4986414;28;21377;-67
2023/07/20 00:22:24;;;;;;;16.00;7.40;;;16.30;25.50;;;;;;4991937;28;20236;-68
2023/07/20 00:24:51;;;;;;;5.53;4.90;;;16.30;1.00;;;;;;4986169;28;20204;-68
2023/07/20 00:27:18;;;;;;;7.03;4.90;;;16.30;1.00;;;;;;4986244;28;20205;-68
2023/07/20 00:29:45;;;;;;;7.97;5.57;;;16.30;1.00;;;;;;4991440;28;20283;-68
2023/07/20 00:32:12;;;;;;;13.37;5.97;;;16.30;1.00;;;;;;4995961;28;20247;-67
2023/07/20 00:34:39;;;;;;;8.83;5.60;;;16.30;1.00;;;;;;4988220;28;20653;-67
2023/07/20 00:37:07;;;;;;;8.53;5.53;;;16.40;1.00;;;;;;4990625;28;20224;-69
2023/07/20 00:39:34;;;;;;;6.23;5.20;;;16.40;1.00;;;;;;5003503;28;22071;-68
2023/07/20 00:42:01;;;;;;;11.77;5.70;;;16.40;1.00;;;;;;4998232;28;20193;-68
2023/07/20 00:44:29;;;;;;;6.33;5.37;;;16.50;1.00;;;;;;4985450;28;22810;-69
2023/07/20 00:46:59;;;;;;;10.37;5.67;;;16.40;1.00;;;;;;4994447;28;20587;-68
2023/07/20 00:49:27;;;;;;;10.23;5.67;;;16.40;1.00;;;;;;5001339;28;20193;-69
2023/07/20 00:51:54;;;;;;;9.97;5.70;;;16.50;1.00;;;;;;5011700;28;20251;-70
2023/07/20 00:54:21;;;;;;;13.20;7.23;;;16.60;1.00;;;;;;5005390;28;20204;-68
2023/07/20 00:56:50;;;;;;;10.83;6.97;;;16.50;1.00;;;;;;5009717;28;20715;-68
2023/07/20 00:59:17;;;;;;;15.57;9.20;;;16.70;1.00;;;;;;5008846;28;20666;-69
2023/07/20 01:01:44;;;;;;;19.13;9.85;;;16.70;1.00;;;;;;5009936;28;20186;-68
2023/07/20 01:04:12;;;;;;;9.95;6.70;;;16.80;1.00;;;;;;5005393;28;20303;-69
2023/07/20 01:06:39;;;;;;;7.93;6.95;;;16.80;1.00;;;;;;5007699;28;20297;-68
2023/07/20 01:09:18;;;;;;;7.97;5.32;;;16.80;1.00;;;;;;5013520;28;20808;-68
2023/07/20 01:12:09;;;;;;;8.25;6.03;;;16.70;1.00;;;;;;5006222;28;20189;-68
2023/07/20 01:14:37;;;;;;;7.80;6.05;;;16.70;1.00;;;;;;5005035;28;20201;-70
2023/07/20 01:17:04;;;;;;;10.27;6.18;;;16.80;1.00;;;;;;5005683;28;20199;-71
2023/07/20 01:19:31;;;;;;;9.90;6.25;;;16.80;1.00;;;;;;5007979;28;20240;-70
2023/07/20 01:22:05;;;;;;;7.83;5.97;;;16.70;1.00;;;;;;5007633;28;20189;-71
2023/07/20 01:25:06;;;;;;;9.88;6.05;;;16.70;1.00;;;;;;5013490;28;20189;-71
2023/07/20 01:27:42;;;;;;;7.32;6.18;;;16.60;1.00;;;;;;5007973;28;20195;-70
2023/07/20 01:30:12;;;;;;;10.00;6.97;;;16.60;1.00;;;;;;5007786;28;20204;-70
2023/07/20 01:32:42;;;;;;;15.18;7.05;;;16.60;1.00;;;;;;5004813;28;20336;-70
2023/07/20 01:35:14;;;;;;;7.70;6.63;;;16.60;1.00;;;;;;5006857;28;20303;-69
2023/07/20 01:37:47;;;;;;;14.87;8.27;;;16.70;1.00;;;;;;5003197;28;20204;-69
2023/07/20 01:40:15;;;;;;;12.70;7.57;;;16.70;1.00;;;;;;5016410;28;20193;-70
2023/07/20 01:42:47;;;;;;;8.23;7.03;;;16.60;1.00;;;;;;5008798;28;20615;-70
2023/07/20 01:45:14;;;;;;;16.17;7.10;;;16.60;1.00;;;;;;5021271;28;20203;-70
2023/07/20 01:47:42;;;;;;;8.75;6.55;;;16.60;1.00;;;;;;5006427;28;20197;-69
2023/07/20 01:50:09;;;;;;;8.87;6.17;;;16.60;1.00;;;;;;5008198;28;20204;-68
2023/07/20 01:52:36;;;;;;;18.35;7.03;;;16.70;1.00;;;;;;5003835;28;20192;-68
2023/07/20 01:55:04;;;;;;;9.32;7.63;;;16.70;1.00;;;;;;5005491;28;20649;-69
2023/07/20 01:57:32;;;;;;;14.00;7.25;;;16.70;1.00;;;;;;5010551;28;20265;-69
2023/07/20 01:59:59;;;;;;;12.18;7.28;;;16.70;1.00;;;;;;5009710;28;20590;-68
2023/07/20 02:06:07;;;;;;;9.23;6.65;;;17.00;1.00;;;;;;5007229;28;20675;-68
2023/07/20 02:08:34;;;;;;;9.65;7.55;;;17.20;99.90;;;;;;5007912;28;20200;-68
2023/07/20 02:11:01;;;;;;;11.38;7.00;;;17.10;99.90;;;;;;4987577;28;20678;-69
2023/07/20 02:13:28;;;;;;;12.63;7.22;;;17.10;99.90;;;;;;5006945;28;20208;-68
2023/07/20 02:15:55;;;;;;;11.10;7.32;;;16.90;99.90;;;;;;5003123;28;20212;-68
2023/07/20 02:18:22;;;;;;;10.70;7.60;;;16.80;99.90;;;;;;5000501;28;20220;-68
2023/07/20 02:20:49;;;;;;;13.38;7.38;;;16.80;99.90;;;;;;5010430;28;20259;-68
2023/07/20 02:23:16;;;;;;;10.27;7.40;;;16.80;99.90;;;;;;4992185;28;20292;-68
2023/07/20 02:25:44;;;;;;;13.27;8.23;;;16.70;99.90;;;;;;5008242;28;20661;-68
2023/07/20 02:28:13;;;;;;;26.38;11.77;;;16.70;99.90;;;;;;5006444;28;20211;-68
2023/07/20 02:30:40;;;;;;;9.60;7.00;;;16.90;99.90;;;;;;5013878;28;20357;-68
2023/07/20 02:33:08;;;;;;;10.30;7.63;;;16.80;99.90;;;;;;5005985;28;20945;-67
2023/07/20 02:35:35;;;;;;;15.85;8.10;;;16.70;99.90;;;;;;5005873;28;20197;-71
2023/07/20 02:38:03;;;;;;;9.15;7.50;;;16.70;99.90;;;;;;5006715;28;20196;-66
2023/07/20 02:40:30;;;;;;;15.25;9.88;;;16.60;99.90;;;;;;5010426;28;20193;-60
2023/07/20 02:42:57;;;;;;;13.25;9.05;;;16.70;99.90;;;;;;5012318;28;20219;-59
2023/07/20 02:45:24;;;;;;;14.25;8.43;;;16.70;99.90;;;;;;5003373;28;20189;-60
2023/07/20 02:47:51;;;;;;;17.45;9.38;;;16.90;99.90;;;;;;5007479;28;20201;-68
2023/07/20 02:50:18;;;;;;;19.88;11.10;;;17.00;99.90;;;;;;4991482;28;20589;-60
2023/07/20 02:52:45;;;;;;;14.35;9.98;;;17.20;1.00;;;;;;5008373;28;20193;-62
2023/07/20 02:55:12;;;;;;;10.25;7.50;;;17.30;1.00;;;;;;5008254;28;20193;-61
2023/07/20 02:57:39;;;;;;;20.38;10.00;;;17.20;99.90;;;;;;5007174;28;20197;-62
2023/07/20 03:00:07;;;;;;;26.48;12.30;;;17.20;99.90;;;;;;5004924;28;20704;-62
2023/07/20 03:02:34;;;;;;;17.55;9.30;;;17.10;99.90;;;;;;4995531;28;20228;-61
2023/07/20 03:05:05;;;;;;;12.38;7.47;;;17.20;99.90;;;;;;4992843;28;20209;-61
2023/07/20 03:07:32;;;;;;;14.95;8.40;;;16.80;99.90;;;;;;5010866;28;20185;-61
2023/07/20 03:09:59;;;;;;;25.42;12.55;;;16.80;99.90;;;;;;5007661;28;20220;-63
2023/07/20 03:12:27;;;;;;;18.27;9.23;;;16.90;1.00;;;;;;5012617;28;20587;-62
2023/07/20 03:14:55;;;;;;;18.98;10.38;;;17.10;99.90;;;;;;5011354;28;20192;-61
2023/07/20 03:17:22;;;;;;;30.67;12.05;;;17.20;99.90;;;;;;5009629;28;20665;-62
2023/07/20 03:19:50;;;;;;;20.60;10.75;;;17.30;99.90;;;;;;5010733;28;20214;-60
2023/07/20 03:22:18;;;;;;;17.27;10.45;;;17.40;99.90;;;;;;5008316;28;20272;-59
2023/07/20 03:24:45;;;;;;;15.48;8.27;;;17.50;99.90;;;;;;5009103;28;20189;-60
2023/07/20 03:27:12;;;;;;;19.83;9.73;;;17.60;99.90;;;;;;5004440;28;20662;-60
2023/07/20 03:29:39;;;;;;;13.25;7.70;;;17.60;99.90;;;;;;5023725;28;20632;-58
2023/07/20 03:32:07;;;;;;;11.52;8.02;;;17.60;99.90;;;;;;5013554;28;20629;-57
2023/07/20 03:34:34;;;;;;;13.02;6.65;;;17.70;99.90;;;;;;5011795;28;20197;-58
2023/07/20 03:37:01;;;;;;;10.55;6.70;;;17.80;99.90;;;;;;5010123;28;20193;-59
2023/07/20 03:39:28;;;;;;;10.27;5.78;;;17.90;99.90;;;;;;5013197;28;20827;-59
2023/07/20 03:41:55;;;;;;;12.93;7.05;;;17.90;99.90;;;;;;5006489;28;20243;-59
2023/07/20 03:44:22;;;;;;;21.38;8.77;;;17.90;99.90;;;;;;5012441;28;20193;-58
2023/07/20 03:46:49;;;;;;;11.70;6.63;;;17.90;99.90;;;;;;5008948;28;20677;-59
2023/07/20 03:49:16;;;;;;;10.98;5.90;;;17.80;99.90;;;;;;5011705;28;20189;-60
2023/07/20 03:51:43;;;;;;;9.18;5.47;;;18.10;99.90;;;;;;4995765;28;20665;-60
2023/07/20 03:54:10;;;;;;;9.23;5.30;;;18.10;99.90;;;;;;5009942;28;20240;-61
2023/07/20 03:56:37;;;;;;;9.63;5.32;;;18.10;99.90;;;;;;5014382;28;20457;-62
2023/07/20 03:59:04;;;;;;;7.35;5.47;;;18.20;99.90;;;;;;4995694;28;20255;-60
2023/07/20 04:01:36;;;;;;;7.03;4.55;;;18.20;99.90;;;;;;5012459;28;20193;-60
2023/07/20 04:04:07;;;;;;;12.60;6.20;;;18.30;99.90;;;;;;5009798;28;20242;-60
2023/07/20 04:06:35;;;;;;;10.05;6.53;;;18.20;99.90;;;;;;5007147;28;20571;-60
2023/07/20 04:09:04;;;;;;;10.25;5.90;;;18.10;99.90;;;;;;5005951;28;20225;-61
2023/07/20 04:11:32;;;;;;;10.88;5.20;;;18.10;99.90;;;;;;5011638;28;20203;-58
2023/07/20 04:13:59;;;;;;;6.63;4.63;;;18.10;99.90;;;;;;5009447;28;20304;-57
2023/07/20 04:16:27;;;;;;;10.75;5.82;;;18.20;99.90;;;;;;4990232;28;21343;-59
2023/07/20 04:18:57;;;;;;;15.73;6.60;;;18.20;99.90;;;;;;5008949;28;20696;-60
2023/07/20 04:21:27;;;;;;;15.93;5.72;;;18.10;99.90;;;;;;5010488;28;20201;-60
2023/07/20 04:23:54;;;;;;;6.93;4.93;;;18.20;99.90;;;;;;4988308;28;20684;-62
2023/07/20 04:26:21;;;;;;;7.85;5.25;;;18.30;99.90;;;;;;5013301;28;20193;-59
2023/07/20 04:28:50;;;;;;;6.57;4.85;;;18.30;99.90;;;;;;5013717;28;20197;-58
2023/07/20 04:31:33;;;;;;;5.85;4.43;;;18.30;99.90;;;;;;5008779;28;20204;-60
2023/07/20 04:34:00;;;;;;;8.68;4.40;;;18.10;99.90;;;;;;5017124;28;20268;-60
2023/07/20 04:36:28;;;;;;;6.03;3.75;;;18.10;99.90;;;;;;5013970;28;20218;-64
2023/07/20 04:38:55;;;;;;;4.80;3.75;;;18.10;99.90;;;;;;5007184;28;20279;-60
2023/07/20 04:41:22;;;;;;;6.72;4.15;;;18.30;99.90;;;;;;5010799;28;20190;-59
2023/07/20 04:43:51;;;;;;;4.43;3.42;;;18.40;99.90;;;;;;5013803;28;20657;-59
2023/07/20 04:46:29;;;;;;;3.30;2.97;;;18.50;99.90;;;;;;4998035;28;20330;-60
2023/07/20 04:48:58;;;;;;;5.95;3.13;;;18.50;99.90;;;;;;5006136;28;20292;-60
2023/07/20 04:51:30;;;;;;;3.75;2.92;;;18.50;99.90;;;;;;5013496;28;20202;-60
2023/07/20 04:53:58;;;;;;;4.00;3.25;;;18.50;99.90;;;;;;5009027;28;20662;-59
2023/07/20 04:56:27;;;;;;;5.03;2.63;;;18.50;99.90;;;;;;5009145;28;20213;-59
2023/07/20 04:58:56;;;;;;;3.45;2.95;;;18.50;99.90;;;;;;5010124;28;20304;-60
2023/07/20 05:01:24;;;;;;;5.43;3.55;;;18.50;99.90;;;;;;5005929;28;20220;-61
2023/07/20 05:03:51;;;;;;;6.60;3.30;;;18.50;99.90;;;;;;5008360;28;20217;-62
2023/07/20 05:06:18;;;;;;;5.30;3.25;;;18.60;99.90;;;;;;5006424;28;20255;-60
2023/07/20 05:08:48;;;;;;;6.28;3.67;;;18.60;99.90;;;;;;5007274;28;20240;-65
2023/07/20 05:11:15;;;;;;;6.95;3.90;;;18.70;99.90;;;;;;5008072;28;20697;-61
2023/07/20 05:13:43;;;;;;;6.97;4.30;;;18.80;99.90;;;;;;4988010;28;20205;-61
2023/07/20 05:16:11;;;;;;;5.43;4.70;;;19.00;99.90;;;;;;5005562;28;20360;-62
2023/07/20 05:18:38;;;;;;;5.57;4.32;;;18.80;99.90;;;;;;4999731;28;20216;-62
2023/07/20 05:21:06;;;;;;;6.03;4.18;;;18.70;99.90;;;;;;5002855;28;20215;-62
2023/07/20 05:23:33;;;;;;;6.28;5.07;;;18.70;99.90;;;;;;5018650;28;20225;-61
2023/07/20 05:26:01;;;;;;;8.43;6.05;;;18.60;99.90;;;;;;5007862;28;20193;-62
2023/07/20 05:28:28;;;;;;;4.75;4.00;;;19.20;99.90;;;;;;5008310;28;20192;-62
2023/07/20 05:30:55;;;;;;;4.63;4.13;;;20.30;99.90;;;;;;5007612;28;20205;-70
2023/07/20 05:33:22;;;;;;;4.75;4.07;;;20.40;99.90;;;;;;5006339;28;20244;-69
2023/07/20 05:35:49;;;;;;;4.13;3.72;;;21.60;99.90;;;;;;5004268;28;20242;-68
2023/07/20 05:38:16;;;;;;;3.90;3.50;;;22.60;99.90;;;;;;5014655;28;20243;-71
2023/07/20 05:40:45;;;;;;;6.15;3.65;;;23.00;99.90;;;;;;5006822;28;20296;-70
2023/07/20 05:43:12;;;;;;;4.25;3.50;;;22.90;99.90;;;;;;4989627;28;20206;-69
2023/07/20 05:45:43;;;;;;;5.43;3.53;;;24.60;99.90;;;;;;5008344;28;20188;-74
2023/07/20 05:48:11;;;;;;;5.90;2.83;;;23.60;99.90;;;;;;5009353;28;20205;-70
2023/07/20 05:50:43;;;;;;;6.40;4.18;;;23.10;99.90;;;;;;5009098;28;20604;-68
2023/07/20 05:53:10;;;;;;;4.75;3.22;;;22.40;99.90;;;;;;5005270;28;20679;-68
2023/07/20 05:55:37;;;;;;;2.88;2.28;;;22.20;99.90;;;;;;5009469;28;20196;-68
2023/07/20 05:58:04;;;;;;;3.67;2.35;;;22.60;99.90;;;;;;5004168;28;20192;-68
2023/07/20 06:00:36;;;;;;;3.08;1.92;;;22.80;99.90;;;;;;5009185;28;20844;-69
2023/07/20 06:03:03;;;;;;;1.77;1.60;;;24.20;99.90;;;;;;5006300;28;20785;-67
2023/07/20 06:05:30;;;;;;;2.53;2.00;;;24.60;99.90;;;;;;5009191;28;20369;-61
2023/07/20 06:07:58;;;;;;;2.97;1.90;;;23.80;99.90;;;;;;5003802;28;20212;-61
2023/07/20 06:10:26;;;;;;;2.35;1.95;;;22.80;99.90;;;;;;5009148;28;20236;-60
2023/07/20 06:12:55;;;;;;;3.17;2.00;;;22.20;99.90;;;;;;4988377;28;20297;-59
2023/07/20 06:15:31;;;;;;;2.42;1.75;;;21.50;99.90;;;;;;5008764;28;20204;-59
2023/07/20 06:17:58;;;;;;;3.33;1.83;;;21.80;99.90;;;;;;5003164;28;20208;-59
2023/07/20 06:20:25;;;;;;;2.15;1.80;;;22.20;99.90;;;;;;5006544;28;20245;-59
2023/07/20 06:22:55;;;;;;;5.38;3.40;;;22.80;99.90;;;;;;5001355;28;20197;-59
2023/07/20 06:25:22;;;;;;;3.53;2.47;;;25.30;99.90;;;;;;5007542;28;20205;-60
2023/07/20 06:27:53;;;;;;;2.53;2.20;;;27.70;99.90;;;;;;5009234;28;20188;-62
2023/07/20 06:30:20;;;;;;;3.40;1.67;;;28.60;99.90;;;;;;5002944;28;20193;-62
2023/07/20 06:32:47;;;;;;;5.28;4.07;;;28.60;99.90;;;;;;4999183;28;20705;-62
2023/07/20 06:35:16;;;;;;;7.82;5.15;;;27.40;99.90;;;;;;5003094;28;20224;-62
2023/07/20 06:37:43;;;;;;;2.40;2.15;;;27.50;99.90;;;;;;4998155;28;20196;-70
2023/07/20 06:40:10;;;;;;;3.15;2.47;;;26.60;99.90;;;;;;5013026;28;20217;-62
2023/07/20 06:42:40;;;;;;;2.70;2.50;;;26.30;99.90;;;;;;4997622;28;20189;-63
2023/07/20 06:45:10;;;;;;;3.63;1.90;;;26.10;99.90;;;;;;4993118;28;20219;-61
2023/07/20 06:47:41;;;;;;;2.92;1.80;;;25.90;99.90;;;;;;5000261;28;20287;-61
2023/07/20 06:50:09;;;;;;;5.15;3.05;;;27.20;99.90;;;;;;4997147;28;20279;-61
2023/07/20 06:52:43;;;;;;;4.10;2.78;;;29.20;99.90;;;;;;5005380;28;20192;-61
2023/07/20 06:55:10;;;;;;;1.65;1.52;;;29.10;99.90;;;;;;5013700;28;20893;-65
2023/07/20 06:57:40;;;;;;;2.65;1.30;;;28.00;99.90;;;;;;5014574;28;20653;-61
2023/07/20 07:00:12;;;;;;;2.47;1.45;;;27.40;99.90;;;;;;5010794;28;20608;-62
2023/07/20 07:02:39;;;;;;;1.73;1.30;;;26.90;99.90;;;;;;5012315;28;20640;-60
2023/07/20 07:05:10;;;;;;;1.55;1.20;;;26.90;99.90;;;;;;5008324;28;20279;-62
2023/07/20 07:07:40;;;;;;;0.95;0.80;;;26.90;99.90;;;;;;5009954;28;20266;-61
2023/07/20 07:10:08;;;;;;;1.35;0.88;;;26.00;99.90;;;;;;5016048;28;20197;-60
2023/07/20 07:12:35;;;;;;;3.30;1.15;;;25.60;99.90;;;;;;5012661;28;20284;-61
2023/07/20 07:15:06;;;;;;;1.77;1.20;;;26.10;99.90;;;;;;5002472;28;20211;-63
2023/07/20 07:17:33;;;;;;;0.95;0.70;;;26.80;99.90;;;;;;4991621;28;20196;-61
2023/07/20 07:20:01;;;;;;;1.02;0.70;;;27.20;99.90;;;;;;5008727;28;20213;-60
2023/07/20 07:22:29;;;;;;;0.80;0.80;;;26.70;99.90;;;;;;5007853;28;20201;-62
2023/07/20 07:24:56;;;;;;;1.00;0.88;;;25.60;99.70;;;;;;4999453;28;20669;-64
2023/07/20 07:27:25;;;;;;;1.02;0.88;;;26.10;99.90;;;;;;5008215;28;20190;-66
2023/07/20 07:29:55;;;;;;;1.70;1.38;;;30.40;99.90;;;;;;5009459;28;20327;-64
2023/07/20 07:32:22;;;;;;;4.72;1.88;;;32.70;99.90;;;;;;5005514;28;20675;-62
2023/07/20 07:34:49;;;;;;;0.85;0.77;;;34.80;99.50;;;;;;5015959;28;20207;-63
2023/07/20 07:37:17;;;;;;;1.15;0.70;;;34.20;95.60;;;;;;5009339;28;20197;-61
2023/07/20 07:39:44;;;;;;;1.35;0.90;;;35.70;95.40;;;;;;5008446;28;20832;-62
2023/07/20 07:42:12;;;;;;;1.05;0.95;;;34.50;92.30;;;;;;5006157;28;20200;-62
2023/07/20 07:44:39;;;;;;;1.23;0.90;;;35.80;92.60;;;;;;4993491;28;20209;-62
2023/07/20 07:47:06;;;;;;;0.98;0.88;;;34.70;88.60;;;;;;5012682;28;20197;-61
2023/07/20 07:49:33;;;;;;;1.52;0.90;;;33.50;99.90;;;;;;5004705;28;20192;-64
2023/07/20 07:52:02;;;;;;;1.60;0.93;;;32.90;88.70;;;;;;5008707;28;20235;-62
2023/07/20 07:54:29;;;;;;;1.00;0.90;;;32.60;89.20;;;;;;4991400;28;20768;-63
2023/07/20 07:56:56;;;;;;;0.70;0.70;;;33.10;86.70;;;;;;5002106;28;20569;-62
2023/07/20 07:59:23;;;;;;;1.00;0.90;;;35.00;88.90;;;;;;5004530;28;20201;-62
2023/07/20 08:01:50;;;;;;;1.20;0.82;;;37.10;82.60;;;;;;5003723;28;20208;-62
2023/07/20 08:04:17;;;;;;;1.17;1.08;;;35.10;71.40;;;;;;5002944;28;20697;-62
2023/07/20 08:06:44;;;;;;;1.23;1.10;;;32.10;74.20;;;;;;4994872;28;20673;-62
2023/07/20 08:09:11;;;;;;;2.85;1.85;;;30.10;75.90;;;;;;5004788;28;20216;-64
2023/07/20 08:11:39;;;;;;;4.43;2.25;;;28.20;77.80;;;;;;5004629;28;20653;-65
2023/07/20 08:14:07;;;;;;;2.55;2.20;;;27.30;80.90;;;;;;5006916;28;20676;-60
2023/07/20 08:16:34;;;;;;;2.50;2.10;;;26.20;81.70;;;;;;5005793;28;20192;-62
2023/07/20 08:19:02;;;;;;;3.13;2.25;;;25.10;84.00;;;;;;5008161;28;20579;-67
2023/07/20 08:21:29;;;;;;;2.90;1.83;;;25.90;91.70;;;;;;5007450;28;20689;-64
2023/07/20 08:23:56;;;;;;;2.88;2.00;;;27.30;85.20;;;;;;5004820;28;20177;-63
2023/07/20 08:26:24;;;;;;;2.38;1.73;;;26.60;84.30;;;;;;5007448;28;20691;-61
2023/07/20 08:28:51;;;;;;;1.73;1.60;;;27.00;91.50;;;;;;5004528;28;20201;-62
2023/07/20 08:31:18;;;;;;;4.07;2.45;;;31.30;90.80;;;;;;5004179;28;20220;-60
2023/07/20 08:33:45;;;;;;;2.15;1.65;;;34.10;85.60;;;;;;5005615;28;20629;-62
2023/07/20 08:36:12;;;;;;;1.52;1.30;;;35.40;82.50;;;;;;5005490;28;20216;-61
2023/07/20 08:38:39;;;;;;;1.20;1.10;;;35.70;74.90;;;;;;5001971;28;20661;-62
2023/07/20 08:41:07;;;;;;;1.50;1.40;;;37.70;74.40;;;;;;5005893;28;20216;-62
2023/07/20 08:43:37;;;;;;;2.40;1.42;;;39.30;68.80;;;;;;5001814;28;20620;-62
2023/07/20 08:46:05;;;;;;;1.58;1.48;;;39.80;65.10;;;;;;5003849;28;20242;-62
2023/07/20 08:48:35;;;;;;;1.77;1.67;;;39.20;64.30;;;;;;5005388;28;20234;-62
2023/07/20 08:51:04;;;;;;;1.52;1.42;;;39.60;59.90;;;;;;5005358;28;20645;-63
2023/07/20 08:53:33;;;;;;;3.17;2.13;;;36.60;57.00;;;;;;5002637;28;20208;-63
2023/07/20 08:56:02;;;;;;;1.70;1.60;;;37.90;60.30;;;;;;5002960;28;20205;-61
2023/07/20 08:58:29;;;;;;;1.83;1.67;;;39.10;56.70;;;;;;5005163;28;20213;-62
2023/07/20 09:00:59;;;;;;;1.50;1.30;;;35.90;50.70;;;;;;5005358;28;20695;-61
2023/07/20 09:03:26;;;;;;;1.23;1.13;;;34.50;59.30;;;;;;5001623;28;20221;-62
2023/07/20 09:05:54;;;;;;;1.42;1.20;;;35.50;56.40;;;;;;5004206;28;20263;-62
2023/07/20 09:08:21;;;;;;;2.00;1.58;;;37.20;55.50;;;;;;5005698;28;20196;-62
2023/07/20 09:10:48;;;;;;;1.20;0.93;;;38.00;52.50;;;;;;5004946;28;20204;-62
2023/07/20 09:13:15;;;;;;;0.93;0.93;;;38.40;52.00;;;;;;5004490;28;20621;-62
2023/07/20 09:15:47;;;;;;;0.93;0.90;;;38.50;51.10;;;;;;5005095;28;20232;-62
2023/07/20 09:18:25;;;;;;;0.90;0.90;;;38.20;50.40;;;;;;5000159;28;20252;-62
2023/07/20 09:20:52;;;;;;;2.05;1.20;;;37.90;49.40;;;;;;5001087;28;20236;-62
2023/07/20 09:23:19;;;;;;;1.10;1.00;;;38.60;47.60;;;;;;5001797;28;20200;-62
2023/07/20 09:25:50;;;;;;;1.48;1.20;;;38.90;45.80;;;;;;5004474;28;20196;-62
2023/07/20 09:28:18;;;;;;;1.20;1.10;;;37.60;40.80;;;;;;5003778;28;20196;-62
2023/07/20 09:30:45;;;;;;;1.13;1.05;;;37.00;47.50;;;;;;5003607;28;20691;-62
2023/07/20 09:33:22;;;;;;;2.00;1.10;;;38.20;48.20;;;;;;5001729;28;20570;-62
2023/07/20 09:35:52;;;;;;;1.70;1.35;;;39.10;44.00;;;;;;5004187;28;20640;-63
2023/07/20 09:38:22;;;;;;;1.10;1.00;;;39.80;41.10;;;;;;5003566;28;20268;-62
2023/07/20 09:40:51;;;;;;;1.20;1.10;;;40.60;39.90;;;;;;5003879;28;20228;-63
2023/07/20 09:43:23;;;;;;;0.85;0.85;;;40.20;40.00;;;;;;5005391;28;20212;-62
2023/07/20 09:45:58;;;;;;;1.75;1.05;;;39.60;37.00;;;;;;5002153;28;20238;-62
2023/07/20 09:48:28;;;;;;;0.70;0.70;;;38.60;34.90;;;;;;5002923;28;20200;-61
2023/07/20 09:50:58;;;;;;;0.98;0.90;;;38.20;35.80;;;;;;5004912;28;20181;-63
2023/07/20 09:53:26;;;;;;;0.82;0.73;;;38.60;32.10;;;;;;5002238;28;20691;-62
2023/07/20 09:55:54;;;;;;;0.63;0.60;;;38.20;32.80;;;;;;5000639;28;20208;-62
2023/07/20 09:58:22;;;;;;;3.17;0.85;;;37.50;30.00;;;;;;5002249;28;20571;-62
2023/07/20 10:00:51;;;;;;;0.70;0.70;;;38.80;30.50;;;;;;5003662;28;20211;-62
2023/07/20 10:03:22;;;;;;;1.70;0.80;;;38.20;29.90;;;;;;5002182;28;20212;-61
2023/07/20 10:06:05;;;;;;;1.00;0.80;;;37.80;29.40;;;;;;5003821;28;20200;-62
2023/07/20 10:08:39;;;;;;;5.63;1.17;;;38.60;29.50;;;;;;5004081;28;20274;-62
2023/07/20 10:11:12;;;;;;;1.45;0.80;;;35.70;23.60;;;;;;5004424;28;20204;-61
2023/07/20 10:13:40;;;;;;;1.48;1.00;;;35.80;28.40;;;;;;5004108;28;20227;-61
2023/07/20 10:16:13;;;;;;;1.63;0.80;;;34.80;27.50;;;;;;5002949;28;20199;-62
2023/07/20 10:18:49;;;;;;;1.10;0.75;;;33.00;28.70;;;;;;4999657;28;20243;-62
2023/07/20 10:21:22;;;;;;;1.38;0.70;;;32.40;29.90;;;;;;5004102;28;20235;-62
2023/07/20 10:23:54;;;;;;;0.65;0.65;;;32.00;32.50;;;;;;5000879;28;20196;-62
2023/07/20 10:26:21;;;;;;;0.85;0.63;;;33.90;32.80;;;;;;5001406;28;20227;-61
2023/07/20 10:28:50;;;;;;;0.70;0.70;;;33.70;28.90;;;;;;5004323;28;20731;-62
2023/07/20 10:31:18;;;;;;;0.50;0.50;;;33.50;29.40;;;;;;5003485;28;20215;-61
2023/07/20 10:33:46;;;;;;;0.82;0.60;;;34.30;28.70;;;;;;5003087;28;20778;-62
2023/07/20 10:36:13;;;;;;;3.08;1.38;;;34.90;28.30;;;;;;5002005;28;20208;-63
2023/07/20 10:38:56;;;;;;;1.75;0.90;;;34.80;27.00;;;;;;5005801;28;20622;-62
2023/07/20 10:41:33;;;;;;;1.65;0.90;;;34.70;27.40;;;;;;5003396;28;20208;-62
2023/07/20 10:44:06;;;;;;;1.35;0.98;;;34.40;27.40;;;;;;5004085;28;20184;-62
2023/07/20 10:46:40;;;;;;;3.20;2.90;;;35.30;26.80;;;;;;5002464;28;20200;-62
2023/07/20 10:49:11;;;;;;;0.60;0.60;;;36.10;25.20;;;;;;5000631;28;20192;-62
2023/07/20 10:51:50;;;;;;;0.70;0.70;;;35.10;20.70;;;;;;5003863;28;20192;-61
2023/07/20 10:54:19;;;;;;;1.75;0.68;;;34.40;24.80;;;;;;5002932;28;20440;-63
2023/07/20 10:56:49;;;;;;;1.08;1.02;;;35.00;24.30;;;;;;5002677;28;20192;-63
2023/07/20 10:59:38;;;;;;;1.30;0.60;;;35.60;24.00;;;;;;5000159;28;20558;-61
2023/07/20 11:02:08;;;;;;;0.68;0.68;;;32.40;19.90;;;;;;5018026;28;20592;-60
2023/07/20 11:04:39;;;;;;;2.15;1.88;;;32.30;26.70;;;;;;5002540;28;20711;-61
2023/07/20 11:07:07;;;;;;;1.92;1.60;;;33.80;24.30;;;;;;4999580;28;20200;-62
2023/07/20 11:09:35;;;;;;;0.98;0.82;;;33.80;24.50;;;;;;5003398;28;20271;-62
2023/07/20 11:12:17;;;;;;;0.82;0.73;;;33.10;26.10;;;;;;5003251;28;20193;-62
2023/07/20 11:14:56;;;;;;;0.80;0.80;;;34.20;23.90;;;;;;5002252;28;20195;-62
2023/07/20 11:17:31;;;;;;;0.60;0.60;;;35.30;22.90;;;;;;4997630;28;20452;-62
2023/07/20 11:20:03;;;;;;;2.60;1.20;;;36.10;21.90;;;;;;4999681;28;20271;-62
2023/07/20 11:22:33;;;;;;;1.67;0.77;;;36.00;21.80;;;;;;5000433;28;20293;-62
2023/07/20 11:25:00;;;;;;;0.90;0.52;;;36.20;19.80;;;;;;4999504;28;20267;-62
2023/07/20 11:27:28;;;;;;;0.50;0.50;;;35.40;21.60;;;;;;4999906;28;20204;-62
2023/07/20 11:29:56;;;;;;;0.52;0.50;;;35.10;20.00;;;;;;5004007;28;20747;-62
2023/07/20 11:32:24;;;;;;;1.00;0.52;;;34.80;20.10;;;;;;4999062;28;20775;-63
2023/07/20 11:34:51;;;;;;;0.70;0.60;;;35.30;20.50;;;;;;4988539;28;20814;-63
2023/07/20 11:37:18;;;;;;;0.52;0.52;;;36.30;19.50;;;;;;4994816;28;20189;-62
2023/07/20 11:39:46;;;;;;;0.70;0.70;;;36.80;18.70;;;;;;5000493;28;20271;-62
2023/07/20 11:42:13;;;;;;;0.85;0.73;;;35.70;19.50;;;;;;5005396;28;20208;-62
2023/07/20 11:45:05;;;;;;;1.38;0.77;;;35.60;19.80;;;;;;5000301;28;20586;-63
2023/07/20 11:47:33;;;;;;;0.60;0.60;;;33.90;20.30;;;;;;5019251;28;20243;-62
2023/07/20 11:50:03;;;;;;;1.02;0.63;;;32.70;21.20;;;;;;4996471;28;20215;-61
2023/07/20 11:52:31;;;;;;;0.52;0.52;;;31.50;23.40;;;;;;5002950;28;20212;-62
2023/07/20 11:54:59;;;;;;;2.15;0.60;;;31.10;24.90;;;;;;5002350;28;20540;-61
2023/07/20 11:57:26;;;;;;;0.75;0.63;;;31.90;24.40;;;;;;5002606;28;20276;-61
2023/07/20 11:59:57;;;;;;;0.85;0.50;;;32.70;22.00;;;;;;5001790;28;20759;-62
2023/07/20 12:02:27;;;;;;;1.75;0.70;;;33.10;21.90;;;;;;5017718;28;20228;-61
2023/07/20 12:04:55;;;;;;;1.08;0.70;;;32.70;20.70;;;;;;5000504;28;20221;-61
2023/07/20 12:07:22;;;;;;;0.50;0.50;;;32.00;19.80;;;;;;5005543;28;21316;-61
2023/07/20 12:10:09;;;;;;;0.45;0.45;;;32.80;19.70;;;;;;5002831;28;20263;-61
2023/07/20 12:12:40;;;;;;;0.68;0.68;;;32.30;18.60;;;;;;5001027;28;20312;-62
2023/07/20 12:15:23;;;;;;;0.70;0.60;;;31.90;20.90;;;;;;5004715;28;20197;-61
2023/07/20 12:17:52;;;;;;;1.00;0.73;;;31.60;21.60;;;;;;4999039;28;20251;-61
2023/07/20 12:20:38;;;;;;;1.42;0.68;;;30.80;22.40;;;;;;5002555;28;20193;-62
2023/07/20 12:23:12;;;;;;;1.13;0.70;;;31.20;21.90;;;;;;4999834;28;20189;-62
2023/07/20 12:25:45;;;;;;;0.77;0.77;;;30.70;22.20;;;;;;4999518;28;20603;-61
2023/07/20 12:28:13;;;;;;;0.55;0.55;;;31.10;21.50;;;;;;5005162;28;20212;-68
2023/07/20 12:30:44;;;;;;;0.57;0.57;;;30.50;22.70;;;;;;5002373;28;20189;-61
2023/07/20 12:33:14;;;;;;;2.10;0.80;;;30.20;23.00;;;;;;5000799;28;20238;-62
2023/07/20 12:35:41;;;;;;;0.93;0.80;;;28.90;23.30;;;;;;5000445;28;20236;-61
2023/07/20 12:38:08;;;;;;;0.65;0.65;;;28.70;23.10;;;;;;5002484;28;20259;-61
2023/07/20 12:40:36;;;;;;;2.60;0.98;;;28.80;24.70;;;;;;5003193;28;20624;-60
2023/07/20 12:43:04;;;;;;;0.73;0.73;;;28.30;25.70;;;;;;5004747;28;20216;-60
2023/07/20 12:45:31;;;;;;;0.50;0.50;;;28.60;26.40;;;;;;5001146;28;20304;-60
2023/07/20 12:47:58;;;;;;;0.60;0.60;;;29.30;25.00;;;;;;5001852;28;20193;-66
2023/07/20 12:50:27;;;;;;;0.77;0.77;;;29.10;24.90;;;;;;5003161;28;20197;-63
2023/07/20 12:52:54;;;;;;;1.95;0.55;;;28.80;25.10;;;;;;5005762;28;20243;-63
2023/07/20 12:55:21;;;;;;;1.13;0.80;;;28.80;25.30;;;;;;5000567;28;20243;-62
2023/07/20 12:57:48;;;;;;;0.70;0.70;;;28.30;24.10;;;;;;5003200;28;20200;-64